Time,TemperatureF,DewpointF,PressureIn,WindDirection,WindDirectionDegrees,WindSpeedMPH,WindSpeedGustMPH,Humidity,HourlyPrecipIn,Conditions,Clouds,dailyrainin,SolarRadiationWatts/m^2,SoftwareType,DateUTC
2013-07-07 00:01:00,67.0,27.0,-100.00,North,1,7.0,10.0,22,0.00,,,0.00,3.000000,,2013-07-07 07:01:00,
2013-07-07 00:11:00,67.0,27.0,-100.00,North,1,7.0,10.0,22,0.00,,,0.00,3.000000,,2013-07-07 07:11:00,
2013-07-07 00:44:00,67.0,28.0,-100.00,North,1,7.0,10.0,23,0.00,,,0.00,3.000000,,2013-07-07 07:44:00,
2013-07-07 00:53:00,67.0,28.0,-100.00,North,1,7.0,10.0,23,0.00,,,0.00,3.000000,,2013-07-07 07:53:00,
2013-07-07 01:02:00,67.0,28.0,-100.00,North,1,7.0,10.0,23,0.00,,,0.00,3.000000,,2013-07-07 08:02:00,
2013-07-07 01:12:00,67.0,28.0,-100.00,North,1,7.0,10.0,23,0.00,,,0.00,3.000000,,2013-07-07 08:12:00,
2013-07-07 01:44:00,66.0,24.0,-100.00,North,1,5.0,8.0,20,0.00,,,0.00,3.000000,,2013-07-07 08:44:00,
2013-07-07 01:53:00,66.0,24.0,-100.00,North,1,5.0,8.0,20,0.00,,,0.00,3.000000,,2013-07-07 08:53:00,
2013-07-07 02:02:00,66.0,24.0,-100.00,North,1,5.0,8.0,20,0.00,,,0.00,3.000000,,2013-07-07 09:02:00,
2013-07-07 02:12:00,66.0,24.0,-100.00,North,1,5.0,8.0,20,0.00,,,0.00,3.000000,,2013-07-07 09:12:00,
2013-07-07 02:43:00,65.0,23.0,-100.00,North,1,5.0,6.0,20,0.00,,,0.00,2.000000,,2013-07-07 09:43:00,
2013-07-07 02:53:00,65.0,23.0,-100.00,North,1,5.0,6.0,20,0.00,,,0.00,2.000000,,2013-07-07 09:53:00,
2013-07-07 03:03:00,65.0,23.0,-100.00,North,1,5.0,6.0,20,0.00,,,0.00,2.000000,,2013-07-07 10:03:00,
2013-07-07 03:12:00,65.0,23.0,-100.00,North,1,5.0,6.0,20,0.00,,,0.00,2.000000,,2013-07-07 10:12:00,
2013-07-07 03:43:00,63.0,19.0,-100.00,North,1,1.0,6.0,18,0.00,,,0.00,3.000000,,2013-07-07 10:43:00,
2013-07-07 03:52:00,63.0,19.0,-100.00,North,1,1.0,6.0,18,0.00,,,0.00,3.000000,,2013-07-07 10:52:00,
2013-07-07 04:02:00,63.0,19.0,-100.00,North,1,1.0,6.0,18,0.00,,,0.00,3.000000,,2013-07-07 11:02:00,
2013-07-07 04:11:00,63.0,19.0,-100.00,North,1,1.0,6.0,18,0.00,,,0.00,3.000000,,2013-07-07 11:11:00,
2013-07-07 05:43:00,66.0,19.0,-100.00,North,1,4.0,5.0,16,0.00,,,0.00,3.000000,,2013-07-07 12:43:00,
2013-07-07 05:52:00,66.0,19.0,-100.00,North,1,4.0,5.0,16,0.00,,,0.00,3.000000,,2013-07-07 12:52:00,
2013-07-07 06:02:00,66.0,19.0,-100.00,North,1,4.0,5.0,16,0.00,,,0.00,3.000000,,2013-07-07 13:02:00,
2013-07-07 06:11:00,66.0,19.0,-100.00,North,1,4.0,5.0,16,0.00,,,0.00,3.000000,,2013-07-07 13:11:00,
2013-07-07 06:43:00,65.0,24.0,-100.00,North,1,3.0,6.0,21,0.00,,,0.00,10.000000,,2013-07-07 13:43:00,
2013-07-07 06:52:00,65.0,24.0,-100.00,North,1,3.0,6.0,21,0.00,,,0.00,10.000000,,2013-07-07 13:52:00,
2013-07-07 07:02:00,65.0,24.0,-100.00,North,1,3.0,6.0,21,0.00,,,0.00,10.000000,,2013-07-07 14:02:00,
2013-07-07 07:12:00,65.0,24.0,-100.00,North,1,3.0,6.0,21,0.00,,,0.00,10.000000,,2013-07-07 14:12:00,
2013-07-07 08:02:00,71.0,35.0,-100.00,North,1,4.0,5.0,27,0.00,,,0.00,133.000000,,2013-07-07 15:02:00,
2013-07-07 08:11:00,71.0,35.0,-100.00,North,1,4.0,5.0,27,0.00,,,0.00,133.000000,,2013-07-07 15:11:00,
2013-07-07 09:01:00,76.0,36.0,-100.00,North,1,3.0,6.0,23,0.00,,,0.00,359.000000,,2013-07-07 16:01:00,
2013-07-07 09:11:00,76.0,36.0,-100.00,North,1,3.0,6.0,23,0.00,,,0.00,359.000000,,2013-07-07 16:11:00,
2013-07-07 09:43:00,79.0,33.0,-100.00,North,0,3.0,5.0,19,0.00,,,0.00,589.000000,,2013-07-07 16:43:00,
2013-07-07 09:53:00,79.0,33.0,-100.00,North,0,3.0,5.0,19,0.00,,,0.00,589.000000,,2013-07-07 16:53:00,
2013-07-07 10:02:00,79.0,33.0,-100.00,North,0,3.0,5.0,19,0.00,,,0.00,589.000000,,2013-07-07 17:02:00,
2013-07-07 10:12:00,79.0,33.0,-100.00,North,0,3.0,5.0,19,0.00,,,0.00,589.000000,,2013-07-07 17:12:00,
2013-07-07 10:43:00,78.0,34.0,-100.00,North,0,6.0,9.0,20,0.00,,,0.00,797.000000,,2013-07-07 17:43:00,
2013-07-07 10:53:00,78.0,34.0,-100.00,North,0,6.0,9.0,20,0.00,,,0.00,797.000000,,2013-07-07 17:53:00,
2013-07-07 11:01:00,78.0,34.0,-100.00,North,0,6.0,9.0,20,0.00,,,0.00,797.000000,,2013-07-07 18:01:00,
2013-07-07 11:11:00,78.0,34.0,-100.00,North,0,6.0,9.0,20,0.00,,,0.00,797.000000,,2013-07-07 18:11:00,
2013-07-07 11:43:00,79.0,43.0,-100.00,North,0,6.0,10.0,28,0.00,,,0.00,964.000000,,2013-07-07 18:43:00,
2013-07-07 11:53:00,79.0,43.0,-100.00,North,0,6.0,10.0,28,0.00,,,0.00,964.000000,,2013-07-07 18:53:00,
2013-07-07 12:01:00,79.0,43.0,-100.00,North,0,6.0,10.0,28,0.00,,,0.00,964.000000,,2013-07-07 19:01:00,
2013-07-07 12:11:00,79.0,43.0,-100.00,North,0,6.0,10.0,28,0.00,,,0.00,964.000000,,2013-07-07 19:11:00,
2013-07-07 12:43:00,79.0,48.0,-100.00,North,0,7.0,10.0,34,0.00,,,0.00,1073.000000,,2013-07-07 19:43:00,
2013-07-07 12:54:00,79.0,48.0,-100.00,North,0,7.0,10.0,34,0.00,,,0.00,1073.000000,,2013-07-07 19:54:00,
2013-07-07 13:02:00,79.0,48.0,-100.00,North,0,7.0,10.0,34,0.00,,,0.00,1073.000000,,2013-07-07 20:02:00,
2013-07-07 13:11:00,79.0,48.0,-100.00,North,0,7.0,10.0,34,0.00,,,0.00,1073.000000,,2013-07-07 20:11:00,
2013-07-07 13:42:00,78.0,48.0,-100.00,North,0,8.0,12.0,35,0.00,,,0.00,1121.000000,,2013-07-07 20:42:00,
2013-07-07 13:53:00,78.0,48.0,-100.00,North,0,8.0,12.0,35,0.00,,,0.00,1121.000000,,2013-07-07 20:53:00,
2013-07-07 14:02:00,78.0,48.0,-100.00,North,0,8.0,12.0,35,0.00,,,0.00,1121.000000,,2013-07-07 21:02:00,
2013-07-07 14:11:00,78.0,48.0,-100.00,North,0,8.0,12.0,35,0.00,,,0.00,1121.000000,,2013-07-07 21:11:00,
2013-07-07 14:44:00,77.0,49.0,-100.00,North,0,10.0,15.0,37,0.00,,,0.00,1110.000000,,2013-07-07 21:44:00,
2013-07-07 14:53:00,77.0,49.0,-100.00,North,0,10.0,15.0,37,0.00,,,0.00,1110.000000,,2013-07-07 21:53:00,
2013-07-07 15:01:00,77.0,49.0,-100.00,North,0,10.0,15.0,37,0.00,,,0.00,1110.000000,,2013-07-07 22:01:00,
2013-07-07 15:11:00,77.0,49.0,-100.00,North,0,10.0,15.0,37,0.00,,,0.00,1110.000000,,2013-07-07 22:11:00,
2013-07-07 15:44:00,77.0,49.0,-100.00,North,0,9.0,15.0,38,0.00,,,0.00,1037.000000,,2013-07-07 22:44:00,
2013-07-07 15:53:00,77.0,49.0,-100.00,North,0,9.0,15.0,38,0.00,,,0.00,1037.000000,,2013-07-07 22:53:00,
2013-07-07 16:01:00,77.0,49.0,-100.00,North,0,9.0,15.0,38,0.00,,,0.00,1037.000000,,2013-07-07 23:01:00,
2013-07-07 16:11:00,77.0,49.0,-100.00,North,0,9.0,15.0,38,0.00,,,0.00,1037.000000,,2013-07-07 23:11:00,
2013-07-07 16:43:00,77.0,43.0,-100.00,North,0,8.0,14.0,30,0.00,,,0.00,901.000000,,2013-07-07 23:43:00,
2013-07-07 16:53:00,77.0,43.0,-100.00,North,0,8.0,14.0,30,0.00,,,0.00,901.000000,,2013-07-07 23:53:00,
2013-07-07 17:01:00,77.0,43.0,-100.00,North,0,8.0,14.0,30,0.00,,,0.00,901.000000,,2013-07-08 00:01:00,
2013-07-07 17:11:00,77.0,43.0,-100.00,North,0,8.0,14.0,30,0.00,,,0.00,901.000000,,2013-07-08 00:11:00,
2013-07-07 17:43:00,75.0,46.0,-100.00,North,0,8.0,13.0,36,0.00,,,-99.99,712.000000,,2013-07-08 00:43:00,
2013-07-07 17:53:00,75.0,46.0,-100.00,North,0,8.0,13.0,36,0.00,,,-99.99,712.000000,,2013-07-08 00:53:00,
2013-07-07 18:01:00,75.0,46.0,-100.00,North,0,8.0,13.0,36,0.00,,,-99.99,712.000000,,2013-07-08 01:01:00,
2013-07-07 18:11:00,75.0,46.0,-100.00,North,0,8.0,13.0,36,0.00,,,-99.99,712.000000,,2013-07-08 01:11:00,
2013-07-07 18:43:00,72.0,45.0,-100.00,North,0,7.0,11.0,38,0.00,,,0.00,420.000000,,2013-07-08 01:43:00,
2013-07-07 18:53:00,72.0,45.0,-100.00,North,0,7.0,11.0,38,0.00,,,0.00,420.000000,,2013-07-08 01:53:00,
2013-07-07 19:02:00,72.0,45.0,-100.00,North,0,7.0,11.0,38,0.00,,,0.00,420.000000,,2013-07-08 02:02:00,
2013-07-07 19:11:00,72.0,45.0,-100.00,North,0,7.0,11.0,38,0.00,,,0.00,420.000000,,2013-07-08 02:11:00,
2013-07-07 19:42:00,69.0,49.0,-100.00,North,0,7.0,10.0,49,0.00,,,0.00,124.000000,,2013-07-08 02:42:00,
2013-07-07 19:52:00,69.0,49.0,-100.00,North,0,7.0,10.0,49,0.00,,,0.00,124.000000,,2013-07-08 02:52:00,
2013-07-07 20:01:00,69.0,49.0,-100.00,North,0,7.0,10.0,49,0.00,,,0.00,124.000000,,2013-07-08 03:01:00,
2013-07-07 20:42:00,69.0,36.0,-100.00,North,0,7.0,10.0,30,0.00,,,0.00,16.000000,,2013-07-08 03:42:00,
2013-07-07 20:52:00,69.0,36.0,-100.00,North,0,7.0,10.0,30,0.00,,,0.00,16.000000,,2013-07-08 03:52:00,
2013-07-07 21:01:00,69.0,36.0,-100.00,North,0,7.0,10.0,30,0.00,,,0.00,16.000000,,2013-07-08 04:01:00,
2013-07-07 21:11:00,69.0,36.0,-100.00,North,0,7.0,10.0,30,0.00,,,0.00,16.000000,,2013-07-08 04:11:00,
2013-07-07 21:42:00,69.0,27.0,-100.00,North,0,7.0,11.0,21,0.00,,,0.00,3.000000,,2013-07-08 04:42:00,
2013-07-07 21:53:00,69.0,27.0,-100.00,North,0,7.0,11.0,21,0.00,,,0.00,3.000000,,2013-07-08 04:53:00,
2013-07-07 22:01:00,69.0,27.0,-100.00,North,0,7.0,11.0,21,0.00,,,0.00,3.000000,,2013-07-08 05:01:00,
2013-07-07 22:11:00,69.0,27.0,-100.00,North,0,7.0,11.0,21,0.00,,,0.00,3.000000,,2013-07-08 05:11:00,
2013-07-07 22:43:00,67.0,32.0,-100.00,North,1,5.0,11.0,27,0.00,,,0.00,3.000000,,2013-07-08 05:43:00,
2013-07-07 22:53:00,67.0,32.0,-100.00,North,1,5.0,11.0,27,0.00,,,0.00,3.000000,,2013-07-08 05:53:00,
2013-07-07 23:01:00,67.0,32.0,-100.00,North,1,5.0,11.0,27,0.00,,,0.00,3.000000,,2013-07-08 06:01:00,
2013-07-07 23:11:00,67.0,32.0,-100.00,North,1,5.0,11.0,27,0.00,,,0.00,3.000000,,2013-07-08 06:11:00,